Frannie, Wyoming
Current Conditions -  °F | °C
As of 6:15 AM on Wednesday 22 Oct 2014 (Local Time) from KU68 Reporting Station
Clear Clear  
Wind Chill: 32°   Ceiling: Unl
Heat Index: 32°   Visibility: 10mi
Dew Point: 21°   Wind: 0mph
Humidity: 64%   Direction: NA
Pressure: 30.04"   Gusts: NA
Location:  44.97°N, 108.62°W
Report Text: KU68 221215Z AUTO 00000KT 10SM CLR 00/M06 A3004 RMK AO2 PWINO
Loading
Personal Weather Stations






























Interactive Weather Map
Tropical Storm Tracking
New forecast layout! Learn more

10-Day Weather Forecast

Advertisements
Track Severe Weather on mobile